SBJP/JPA METAR and TAF weather

Enter ICAO airport designator
Station Type Date Time Source
SBJP METAR 2019/06/19 07:00 UTC NOAA

SBJP 190700Z 21004KT 9999 FEW020 SCT080 22/21 Q1015


Station Type Date Time Source
SBJP Decoded METAR 2019/06/19 07:00 UTC NOAA

Joao Pessoa, Brazil (SBJP) 07-06S 034-52W
Jun 19, 2019 - 03:00 AM EDT / 2019.06.19 0700 UTC
Wind: from the SSW (210 degrees) at 5 MPH (4 KT):0
Visibility: greater than 7 mile(s):0
Sky conditions: partly cloudy
Temperature: 71 F (22 C)
Dew Point: 69 F (21 C)
Relative Humidity: 94%
Pressure (altimeter): 29.97 in. Hg (1015 hPa)
ob: SBJP 190700Z 21004KT 9999 FEW020 SCT080 22/21 Q1015
cycle: 7

Station Type Date Time Source
SBJP TAF 2019/06/19 06:09 UTC NOAA

TAF TAF SBJP 190400Z 1906/2006 18008KT 9999 SCT020 TN25/1906Z TX28/1918Z
BECMG 1910/1911 19015KT SCT023
BECMG 1922/1923 19005KT SCT020
RMK PFM

Example: see airport list